sensor_id;sensor_type;location;lat;lon;timestamp;pressure;altitude;pressure_sealevel;temperature;humidity
55010;BME280;40903;51.638;7.528;2022-10-28T00:01:50;101319.41;;;16.11;100.00
55010;BME280;40903;51.638;7.528;2022-10-28T00:04:15;101322.16;;;16.11;100.00
55010;BME280;40903;51.638;7.528;2022-10-28T00:06:41;101315.03;;;16.10;100.00
55010;BME280;40903;51.638;7.528;2022-10-28T00:09:06;101317.47;;;16.11;100.00
55010;BME280;40903;51.638;7.528;2022-10-28T00:11:32;101313.09;;;16.10;100.00
55010;BME280;40903;51.638;7.528;2022-10-28T00:13:59;101309.72;;;16.13;100.00
55010;BME280;40903;51.638;7.528;2022-10-28T00:16:26;101311.84;;;16.16;100.00
55010;BME280;40903;51.638;7.528;2022-10-28T00:18:52;101307.16;;;16.17;100.00
55010;BME280;40903;51.638;7.528;2022-10-28T00:21:22;101315.09;;;16.18;100.00
55010;BME280;40903;51.638;7.528;2022-10-28T00:23:48;101306.53;;;16.20;100.00
55010;BME280;40903;51.638;7.528;2022-10-28T00:26:14;101315.28;;;16.22;100.00
55010;BME280;40903;51.638;7.528;2022-10-28T00:28:43;101307.84;;;16.22;100.00
55010;BME280;40903;51.638;7.528;2022-10-28T00:31:09;101302.84;;;16.24;100.00
55010;BME280;40903;51.638;7.528;2022-10-28T00:33:35;101304.78;;;16.24;100.00
55010;BME280;40903;51.638;7.528;2022-10-28T00:38:41;101305.59;;;16.24;100.00
55010;BME280;40903;51.638;7.528;2022-10-28T00:41:07;101300.91;;;16.25;100.00
55010;BME280;40903;51.638;7.528;2022-10-28T00:43:36;101306.41;;;16.25;100.00
55010;BME280;40903;51.638;7.528;2022-10-28T00:46:02;101299.28;;;16.24;100.00
55010;BME280;40903;51.638;7.528;2022-10-28T00:48:28;101303.97;;;16.23;100.00
55010;BME280;40903;51.638;7.528;2022-10-28T00:50:53;101302.34;;;16.22;100.00
55010;BME280;40903;51.638;7.528;2022-10-28T00:53:23;101303.47;;;16.21;100.00
55010;BME280;40903;51.638;7.528;2022-10-28T00:55:49;101296.34;;;16.20;100.00
55010;BME280;40903;51.638;7.528;2022-10-28T00:58:15;101293.88;;;16.19;100.00
55010;BME280;40903;51.638;7.528;2022-10-28T01:00:41;101291.13;;;16.19;100.00
55010;BME280;40903;51.638;7.528;2022-10-28T01:03:07;101285.97;;;16.17;100.00
55010;BME280;40903;51.638;7.528;2022-10-28T01:05:33;101286.47;;;16.19;100.00
55010;BME280;40903;51.638;7.528;2022-10-28T01:08:00;101279.00;;;16.20;100.00
55010;BME280;40903;51.638;7.528;2022-10-28T01:15:40;101270.94;;;16.23;100.00
55010;BME280;40903;51.638;7.528;2022-10-28T01:18:16;101269.31;;;16.22;100.00
55010;BME280;40903;51.638;7.528;2022-10-28T01:23:31;101261.06;;;16.22;100.00
55010;BME280;40903;51.638;7.528;2022-10-28T01:26:12;101262.97;;;16.22;100.00
55010;BME280;40903;51.638;7.528;2022-10-28T01:28:48;101259.94;;;16.23;100.00
55010;BME280;40903;51.638;7.528;2022-10-28T01:36:19;101246.72;;;16.34;100.00
55010;BME280;40903;51.638;7.528;2022-10-28T01:38:52;101251.31;;;16.38;100.00
55010;BME280;40903;51.638;7.528;2022-10-28T01:41:30;101249.03;;;16.40;100.00
55010;BME280;40903;51.638;7.528;2022-10-28T01:44:05;101246.00;;;16.42;100.00
55010;BME280;40903;51.638;7.528;2022-10-28T01:47:15;101240.47;;;16.42;100.00
55010;BME280;40903;51.638;7.528;2022-10-28T01:49:22;101247.13;;;16.41;100.00
55010;BME280;40903;51.638;7.528;2022-10-28T01:51:53;101249.03;;;16.40;100.00
55010;BME280;40903;51.638;7.528;2022-10-28T01:54:22;101246.63;;;16.39;100.00
55010;BME280;40903;51.638;7.528;2022-10-28T01:56:48;101256.81;;;16.38;100.00
55010;BME280;40903;51.638;7.528;2022-10-28T01:59:19;101259.06;;;16.36;100.00
55010;BME280;40903;51.638;7.528;2022-10-28T02:01:45;101268.13;;;16.37;100.00
55010;BME280;40903;51.638;7.528;2022-10-28T02:04:10;101267.31;;;16.36;100.00
55010;BME280;40903;51.638;7.528;2022-10-28T02:06:35;101262.13;;;16.35;100.00
55010;BME280;40903;51.638;7.528;2022-10-28T02:14:46;101248.19;;;16.31;100.00
55010;BME280;40903;51.638;7.528;2022-10-28T02:19:47;101240.53;;;16.28;100.00
55010;BME280;40903;51.638;7.528;2022-10-28T02:22:14;101241.66;;;16.27;100.00
55010;BME280;40903;51.638;7.528;2022-10-28T02:27:19;101231.91;;;16.21;100.00
55010;BME280;40903;51.638;7.528;2022-10-28T02:29:47;101234.97;;;16.20;100.00
55010;BME280;40903;51.638;7.528;2022-10-28T02:32:14;101232.56;;;16.18;100.00
55010;BME280;40903;51.638;7.528;2022-10-28T02:34:42;101224.28;;;16.18;100.00
55010;BME280;40903;51.638;7.528;2022-10-28T02:37:14;101219.44;;;16.15;100.00
55010;BME280;40903;51.638;7.528;2022-10-28T02:39:42;101232.34;;;16.15;100.00
55010;BME280;40903;51.638;7.528;2022-10-28T02:42:20;101239.28;;;16.12;100.00
55010;BME280;40903;51.638;7.528;2022-10-28T02:44:48;101243.16;;;16.11;100.00
55010;BME280;40903;51.638;7.528;2022-10-28T02:47:16;101239.94;;;16.09;100.00
55010;BME280;40903;51.638;7.528;2022-10-28T02:49:44;101243.50;;;16.10;100.00
55010;BME280;40903;51.638;7.528;2022-10-28T02:52:10;101233.78;;;16.12;100.00
55010;BME280;40903;51.638;7.528;2022-10-28T02:54:49;101243.66;;;16.13;100.00
55010;BME280;40903;51.638;7.528;2022-10-28T02:57:18;101247.75;;;16.16;100.00
55010;BME280;40903;51.638;7.528;2022-10-28T02:59:58;101249.69;;;16.15;100.00
55010;BME280;40903;51.638;7.528;2022-10-28T03:02:24;101238.69;;;16.15;100.00
55010;BME280;40903;51.638;7.528;2022-10-28T03:04:50;101228.78;;;16.14;100.00
55010;BME280;40903;51.638;7.528;2022-10-28T03:07:16;101229.41;;;16.11;100.00
55010;BME280;40903;51.638;7.528;2022-10-28T03:09:41;101213.06;;;16.06;100.00
55010;BME280;40903;51.638;7.528;2022-10-28T03:12:06;101217.88;;;16.01;100.00
55010;BME280;40903;51.638;7.528;2022-10-28T03:14:32;101205.38;;;15.95;100.00
55010;BME280;40903;51.638;7.528;2022-10-28T03:16:57;101216.50;;;15.90;100.00
55010;BME280;40903;51.638;7.528;2022-10-28T03:19:22;101213.38;;;15.83;100.00
55010;BME280;40903;51.638;7.528;2022-10-28T03:21:47;101215.75;;;15.76;100.00
55010;BME280;40903;51.638;7.528;2022-10-28T03:24:12;101214.75;;;15.72;100.00
55010;BME280;40903;51.638;7.528;2022-10-28T03:26:37;101212.63;;;15.69;100.00
55010;BME280;40903;51.638;7.528;2022-10-28T03:29:03;101208.06;;;15.65;100.00
55010;BME280;40903;51.638;7.528;2022-10-28T03:31:28;101204.31;;;15.61;100.00
55010;BME280;40903;51.638;7.528;2022-10-28T03:33:53;101200.56;;;15.57;100.00
55010;BME280;40903;51.638;7.528;2022-10-28T03:36:18;101196.50;;;15.54;100.00
55010;BME280;40903;51.638;7.528;2022-10-28T03:38:43;101202.13;;;15.49;100.00
55010;BME280;40903;51.638;7.528;2022-10-28T03:41:09;101210.47;;;15.44;100.00
55010;BME280;40903;51.638;7.528;2022-10-28T03:43:34;101206.22;;;15.38;100.00
55010;BME280;40903;51.638;7.528;2022-10-28T03:45:59;101204.41;;;15.34;100.00
55010;BME280;40903;51.638;7.528;2022-10-28T03:48:24;101194.31;;;15.29;100.00
55010;BME280;40903;51.638;7.528;2022-10-28T03:50:52;101191.69;;;15.24;100.00
55010;BME280;40903;51.638;7.528;2022-10-28T03:53:18;101194.84;;;15.18;100.00
55010;BME280;40903;51.638;7.528;2022-10-28T03:55:43;101188.66;;;15.12;100.00
55010;BME280;40903;51.638;7.528;2022-10-28T03:58:08;101192.63;;;15.06;100.00
55010;BME280;40903;51.638;7.528;2022-10-28T04:00:33;101194.19;;;14.99;100.00
55010;BME280;40903;51.638;7.528;2022-10-28T04:02:59;101187.97;;;14.93;100.00
55010;BME280;40903;51.638;7.528;2022-10-28T04:05:24;101183.72;;;14.87;100.00
55010;BME280;40903;51.638;7.528;2022-10-28T04:07:49;101189.63;;;14.81;100.00
55010;BME280;40903;51.638;7.528;2022-10-28T04:10:14;101192.78;;;14.74;100.00
55010;BME280;40903;51.638;7.528;2022-10-28T04:12:39;101189.34;;;14.69;100.00
55010;BME280;40903;51.638;7.528;2022-10-28T04:15:05;101199.59;;;14.63;100.00
55010;BME280;40903;51.638;7.528;2022-10-28T04:17:32;101187.09;;;14.57;100.00
55010;BME280;40903;51.638;7.528;2022-10-28T04:19:57;101189.44;;;14.50;100.00
55010;BME280;40903;51.638;7.528;2022-10-28T04:22:22;101181.59;;;14.44;100.00
55010;BME280;40903;51.638;7.528;2022-10-28T04:24:48;101177.34;;;14.38;100.00
55010;BME280;40903;51.638;7.528;2022-10-28T04:27:13;101189.22;;;14.33;100.00
55010;BME280;40903;51.638;7.528;2022-10-28T04:29:38;101181.38;;;14.27;100.00
55010;BME280;40903;51.638;7.528;2022-10-28T04:32:03;101185.03;;;14.22;100.00
55010;BME280;40903;51.638;7.528;2022-10-28T04:34:28;101181.28;;;14.18;100.00
55010;BME280;40903;51.638;7.528;2022-10-28T04:36:54;101178.91;;;14.12;100.00
55010;BME280;40903;51.638;7.528;2022-10-28T04:39:19;101181.41;;;14.08;100.00
55010;BME280;40903;51.638;7.528;2022-10-28T04:41:44;101185.00;;;14.09;100.00
55010;BME280;40903;51.638;7.528;2022-10-28T04:44:09;101176.50;;;14.24;100.00
55010;BME280;40903;51.638;7.528;2022-10-28T04:46:34;101183.00;;;14.28;100.00
55010;BME280;40903;51.638;7.528;2022-10-28T04:49:00;101183.50;;;14.30;100.00
55010;BME280;40903;51.638;7.528;2022-10-28T04:51:25;101179.47;;;14.27;100.00
55010;BME280;40903;51.638;7.528;2022-10-28T04:53:50;101186.97;;;14.22;100.00
55010;BME280;40903;51.638;7.528;2022-10-28T04:56:15;101184.31;;;14.17;100.00
55010;BME280;40903;51.638;7.528;2022-10-28T04:58:40;101182.75;;;14.11;100.00
55010;BME280;40903;51.638;7.528;2022-10-28T05:01:06;101188.34;;;14.06;100.00
55010;BME280;40903;51.638;7.528;2022-10-28T05:03:32;101188.41;;;14.01;100.00
55010;BME280;40903;51.638;7.528;2022-10-28T05:05:57;101189.84;;;13.98;100.00
55010;BME280;40903;51.638;7.528;2022-10-28T05:08:22;101194.28;;;13.94;100.00
55010;BME280;40903;51.638;7.528;2022-10-28T05:10:47;101186.38;;;13.93;100.00
55010;BME280;40903;51.638;7.528;2022-10-28T05:13:15;101190.53;;;13.90;100.00
55010;BME280;40903;51.638;7.528;2022-10-28T05:15:40;101196.72;;;13.96;100.00
55010;BME280;40903;51.638;7.528;2022-10-28T05:18:05;101190.88;;;14.02;100.00
55010;BME280;40903;51.638;7.528;2022-10-28T05:20:30;101197.97;;;14.03;100.00
55010;BME280;40903;51.638;7.528;2022-10-28T05:22:55;101198.78;;;14.04;100.00
55010;BME280;40903;51.638;7.528;2022-10-28T05:25:21;101204.56;;;14.02;100.00
55010;BME280;40903;51.638;7.528;2022-10-28T05:27:46;101204.06;;;14.00;100.00
55010;BME280;40903;51.638;7.528;2022-10-28T05:30:12;101205.47;;;13.98;100.00
55010;BME280;40903;51.638;7.528;2022-10-28T05:32:37;101207.19;;;13.94;100.00
55010;BME280;40903;51.638;7.528;2022-10-28T05:35:02;101200.16;;;13.88;100.00
55010;BME280;40903;51.638;7.528;2022-10-28T05:37:28;101201.59;;;13.85;100.00
55010;BME280;40903;51.638;7.528;2022-10-28T05:39:53;101197.00;;;13.81;100.00
55010;BME280;40903;51.638;7.528;2022-10-28T05:42:18;101198.09;;;13.80;100.00
55010;BME280;40903;51.638;7.528;2022-10-28T05:44:43;101197.09;;;13.76;100.00
55010;BME280;40903;51.638;7.528;2022-10-28T05:47:08;101196.03;;;13.72;100.00
55010;BME280;40903;51.638;7.528;2022-10-28T05:49:34;101198.28;;;13.70;100.00
55010;BME280;40903;51.638;7.528;2022-10-28T05:51:59;101204.59;;;13.71;100.00
55010;BME280;40903;51.638;7.528;2022-10-28T05:54:24;101199.59;;;13.73;100.00
55010;BME280;40903;51.638;7.528;2022-10-28T05:56:50;101206.72;;;13.73;100.00
55010;BME280;40903;51.638;7.528;2022-10-28T05:59:15;101208.63;;;13.73;100.00
55010;BME280;40903;51.638;7.528;2022-10-28T06:01:40;101201.53;;;13.72;100.00
55010;BME280;40903;51.638;7.528;2022-10-28T06:04:05;101220.50;;;13.69;100.00
55010;BME280;40903;51.638;7.528;2022-10-28T06:06:31;101227.09;;;13.68;100.00
55010;BME280;40903;51.638;7.528;2022-10-28T06:08:56;101219.97;;;13.67;100.00
55010;BME280;40903;51.638;7.528;2022-10-28T06:11:21;101221.09;;;13.66;100.00
55010;BME280;40903;51.638;7.528;2022-10-28T06:13:46;101217.53;;;13.65;100.00
55010;BME280;40903;51.638;7.528;2022-10-28T06:16:12;101204.97;;;13.64;100.00
55010;BME280;40903;51.638;7.528;2022-10-28T06:18:37;101205.25;;;13.63;100.00
55010;BME280;40903;51.638;7.528;2022-10-28T06:21:02;101213.78;;;13.61;100.00
55010;BME280;40903;51.638;7.528;2022-10-28T06:23:28;101221.19;;;13.61;100.00
55010;BME280;40903;51.638;7.528;2022-10-28T06:25:56;101220.38;;;13.60;100.00
55010;BME280;40903;51.638;7.528;2022-10-28T06:28:22;101227.47;;;13.61;100.00
55010;BME280;40903;51.638;7.528;2022-10-28T06:30:47;101228.78;;;13.64;100.00
55010;BME280;40903;51.638;7.528;2022-10-28T06:33:12;101221.81;;;13.71;100.00
55010;BME280;40903;51.638;7.528;2022-10-28T06:35:38;101225.06;;;13.73;100.00
55010;BME280;40903;51.638;7.528;2022-10-28T06:38:03;101223.97;;;13.74;100.00
55010;BME280;40903;51.638;7.528;2022-10-28T06:40:28;101219.31;;;13.74;100.00
55010;BME280;40903;51.638;7.528;2022-10-28T06:43:00;101224.50;;;13.76;100.00
55010;BME280;40903;51.638;7.528;2022-10-28T06:45:26;101228.88;;;13.77;100.00
55010;BME280;40903;51.638;7.528;2022-10-28T06:47:56;101234.53;;;13.80;100.00
55010;BME280;40903;51.638;7.528;2022-10-28T06:50:21;101246.06;;;13.82;100.00
55010;BME280;40903;51.638;7.528;2022-10-28T06:52:46;101233.66;;;13.85;100.00
55010;BME280;40903;51.638;7.528;2022-10-28T06:55:12;101235.78;;;13.88;100.00
55010;BME280;40903;51.638;7.528;2022-10-28T06:57:37;101238.47;;;13.93;100.00
55010;BME280;40903;51.638;7.528;2022-10-28T07:00:03;101234.00;;;13.97;100.00
55010;BME280;40903;51.638;7.528;2022-10-28T07:02:28;101243.25;;;14.01;100.00
55010;BME280;40903;51.638;7.528;2022-10-28T07:04:53;101240.72;;;14.04;100.00
55010;BME280;40903;51.638;7.528;2022-10-28T07:07:19;101236.59;;;14.07;100.00
55010;BME280;40903;51.638;7.528;2022-10-28T07:09:44;101237.09;;;14.09;100.00
55010;BME280;40903;51.638;7.528;2022-10-28T07:12:09;101234.34;;;14.09;100.00
55010;BME280;40903;51.638;7.528;2022-10-28T07:14:34;101229.38;;;14.11;100.00
55010;BME280;40903;51.638;7.528;2022-10-28T07:17:00;101234.56;;;14.12;100.00
55010;BME280;40903;51.638;7.528;2022-10-28T07:19:25;101242.19;;;14.15;100.00
55010;BME280;40903;51.638;7.528;2022-10-28T07:21:50;101245.47;;;14.17;100.00
55010;BME280;40903;51.638;7.528;2022-10-28T07:24:15;101248.44;;;14.21;100.00
55010;BME280;40903;51.638;7.528;2022-10-28T07:26:40;101256.06;;;14.24;100.00
55010;BME280;40903;51.638;7.528;2022-10-28T07:29:06;101261.78;;;14.27;100.00
55010;BME280;40903;51.638;7.528;2022-10-28T07:31:31;101262.78;;;14.31;100.00
55010;BME280;40903;51.638;7.528;2022-10-28T07:33:56;101263.81;;;14.35;100.00
55010;BME280;40903;51.638;7.528;2022-10-28T07:36:21;101258.53;;;14.39;100.00
55010;BME280;40903;51.638;7.528;2022-10-28T07:38:47;101254.56;;;14.45;100.00
55010;BME280;40903;51.638;7.528;2022-10-28T07:41:12;101257.75;;;14.52;100.00
55010;BME280;40903;51.638;7.528;2022-10-28T07:43:37;101249.63;;;14.60;100.00
55010;BME280;40903;51.638;7.528;2022-10-28T07:46:03;101253.78;;;14.71;100.00
55010;BME280;40903;51.638;7.528;2022-10-28T07:48:29;101260.91;;;14.86;100.00
55010;BME280;40903;51.638;7.528;2022-10-28T07:50:54;101266.09;;;15.01;100.00
55010;BME280;40903;51.638;7.528;2022-10-28T07:53:20;101263.53;;;15.18;100.00
55010;BME280;40903;51.638;7.528;2022-10-28T07:55:52;101263.72;;;15.35;100.00
55010;BME280;40903;51.638;7.528;2022-10-28T07:58:18;101271.22;;;15.56;100.00
55010;BME280;40903;51.638;7.528;2022-10-28T08:00:43;101273.81;;;15.75;100.00
55010;BME280;40903;51.638;7.528;2022-10-28T08:03:08;101270.91;;;15.93;100.00
55010;BME280;40903;51.638;7.528;2022-10-28T08:05:33;101268.97;;;16.15;100.00
55010;BME280;40903;51.638;7.528;2022-10-28T08:07:58;101260.69;;;16.37;100.00
55010;BME280;40903;51.638;7.528;2022-10-28T08:10:25;101255.47;;;16.58;100.00
55010;BME280;40903;51.638;7.528;2022-10-28T08:12:50;101257.16;;;16.76;100.00
55010;BME280;40903;51.638;7.528;2022-10-28T08:15:15;101261.28;;;16.95;100.00
55010;BME280;40903;51.638;7.528;2022-10-28T08:17:42;101260.19;;;17.13;100.00
55010;BME280;40903;51.638;7.528;2022-10-28T08:20:07;101261.72;;;17.28;100.00
55010;BME280;40903;51.638;7.528;2022-10-28T08:22:33;101265.31;;;17.45;100.00
55010;BME280;40903;51.638;7.528;2022-10-28T08:24:58;101258.84;;;17.58;100.00
55010;BME280;40903;51.638;7.528;2022-10-28T08:27:23;101261.94;;;17.65;100.00
55010;BME280;40903;51.638;7.528;2022-10-28T08:29:49;101267.78;;;17.72;100.00
55010;BME280;40903;51.638;7.528;2022-10-28T08:32:14;101268.44;;;17.78;100.00
55010;BME280;40903;51.638;7.528;2022-10-28T08:34:39;101253.31;;;17.83;100.00
55010;BME280;40903;51.638;7.528;2022-10-28T08:37:04;101259.00;;;17.87;99.81
55010;BME280;40903;51.638;7.528;2022-10-28T08:39:30;101266.31;;;17.91;98.09
55010;BME280;40903;51.638;7.528;2022-10-28T08:47:48;101260.78;;;18.08;100.00
55010;BME280;40903;51.638;7.528;2022-10-28T08:50:19;101254.28;;;18.13;100.00
55010;BME280;40903;51.638;7.528;2022-10-28T08:53:05;101256.22;;;18.21;100.00
55010;BME280;40903;51.638;7.528;2022-10-28T08:55:39;101250.22;;;18.27;99.95
55010;BME280;40903;51.638;7.528;2022-10-28T08:58:17;101252.28;;;18.39;99.24
55010;BME280;40903;51.638;7.528;2022-10-28T09:00:51;101245.75;;;18.52;97.67
55010;BME280;40903;51.638;7.528;2022-10-28T09:03:37;101250.06;;;18.70;92.63
55010;BME280;40903;51.638;7.528;2022-10-28T09:06:06;101241.38;;;18.88;91.17
55010;BME280;40903;51.638;7.528;2022-10-28T09:08:50;101246.66;;;19.10;86.27
55010;BME280;40903;51.638;7.528;2022-10-28T09:16:39;101237.00;;;19.86;78.58
55010;BME280;40903;51.638;7.528;2022-10-28T09:19:13;101240.22;;;20.08;78.12
55010;BME280;40903;51.638;7.528;2022-10-28T09:21:46;101239.13;;;20.33;75.60
55010;BME280;40903;51.638;7.528;2022-10-28T09:24:17;101237.00;;;20.51;73.98
55010;BME280;40903;51.638;7.528;2022-10-28T09:26:57;101236.44;;;20.69;73.16
55010;BME280;40903;51.638;7.528;2022-10-28T09:31:52;101243.63;;;21.06;70.71
55010;BME280;40903;51.638;7.528;2022-10-28T09:34:32;101242.16;;;21.21;69.99
55010;BME280;40903;51.638;7.528;2022-10-28T09:37:03;101253.91;;;21.30;70.33
55010;BME280;40903;51.638;7.528;2022-10-28T09:39:34;101240.34;;;21.52;67.60
55010;BME280;40903;51.638;7.528;2022-10-28T09:42:03;101235.97;;;21.63;67.01
55010;BME280;40903;51.638;7.528;2022-10-28T09:44:33;101243.81;;;21.73;64.70
55010;BME280;40903;51.638;7.528;2022-10-28T09:47:00;101242.13;;;21.84;64.26
55010;BME280;40903;51.638;7.528;2022-10-28T09:49:30;101240.91;;;21.97;64.07
55010;BME280;40903;51.638;7.528;2022-10-28T09:52:00;101235.75;;;22.11;67.24
55010;BME280;40903;51.638;7.528;2022-10-28T09:54:33;101235.09;;;22.29;65.97
55010;BME280;40903;51.638;7.528;2022-10-28T09:56:58;101236.50;;;22.51;62.54
55010;BME280;40903;51.638;7.528;2022-10-28T09:59:24;101235.81;;;22.69;61.57
55010;BME280;40903;51.638;7.528;2022-10-28T10:01:49;101229.94;;;22.90;63.84
55010;BME280;40903;51.638;7.528;2022-10-28T10:04:18;101232.13;;;23.12;60.29
55010;BME280;40903;51.638;7.528;2022-10-28T10:06:45;101229.38;;;23.31;59.13
55010;BME280;40903;51.638;7.528;2022-10-28T10:09:24;101225.75;;;23.46;58.90
55010;BME280;40903;51.638;7.528;2022-10-28T10:11:51;101233.41;;;23.68;58.17
55010;BME280;40903;51.638;7.528;2022-10-28T10:14:19;101235.41;;;23.86;57.98
55010;BME280;40903;51.638;7.528;2022-10-28T10:16:50;101235.69;;;24.00;55.34
55010;BME280;40903;51.638;7.528;2022-10-28T10:19:17;101234.88;;;24.18;54.78
55010;BME280;40903;51.638;7.528;2022-10-28T10:24:40;101237.06;;;24.28;52.65
55010;BME280;40903;51.638;7.528;2022-10-28T10:29:27;101233.53;;;24.31;53.67
55010;BME280;40903;51.638;7.528;2022-10-28T10:32:03;101235.00;;;24.25;52.41
55010;BME280;40903;51.638;7.528;2022-10-28T10:34:29;101237.22;;;24.17;52.06
55010;BME280;40903;51.638;7.528;2022-10-28T10:36:55;101235.03;;;24.07;53.50
55010;BME280;40903;51.638;7.528;2022-10-28T10:39:21;101229.38;;;24.03;55.12
55010;BME280;40903;51.638;7.528;2022-10-28T10:41:50;101232.41;;;24.14;55.12
55010;BME280;40903;51.638;7.528;2022-10-28T10:49:23;101232.06;;;24.56;52.79
55010;BME280;40903;51.638;7.528;2022-10-28T10:51:52;101233.28;;;24.59;52.85
55010;BME280;40903;51.638;7.528;2022-10-28T10:54:18;101230.28;;;24.48;52.84
55010;BME280;40903;51.638;7.528;2022-10-28T10:56:44;101242.09;;;24.42;53.47
55010;BME280;40903;51.638;7.528;2022-10-28T11:01:46;101227.72;;;24.40;54.18
55010;BME280;40903;51.638;7.528;2022-10-28T11:04:16;101232.94;;;24.41;51.12
55010;BME280;40903;51.638;7.528;2022-10-28T11:06:42;101231.88;;;24.49;51.31
55010;BME280;40903;51.638;7.528;2022-10-28T11:09:18;101232.91;;;24.60;50.51
55010;BME280;40903;51.638;7.528;2022-10-28T11:11:45;101229.06;;;24.68;52.56
55010;BME280;40903;51.638;7.528;2022-10-28T11:19:18;101228.19;;;24.87;49.10
55010;BME280;40903;51.638;7.528;2022-10-28T11:24:47;101214.38;;;24.71;51.77
55010;BME280;40903;51.638;7.528;2022-10-28T11:29:47;101203.91;;;24.65;51.12
55010;BME280;40903;51.638;7.528;2022-10-28T11:37:45;101191.59;;;24.47;50.47
55010;BME280;40903;51.638;7.528;2022-10-28T11:50:51;101178.53;;;24.51;53.70
55010;BME280;40903;51.638;7.528;2022-10-28T11:55:49;101178.72;;;24.61;50.90
55010;BME280;40903;51.638;7.528;2022-10-28T12:03:42;101176.97;;;24.76;51.43
55010;BME280;40903;51.638;7.528;2022-10-28T12:06:21;101167.13;;;24.82;51.01
55010;BME280;40903;51.638;7.528;2022-10-28T12:11:26;101162.72;;;24.81;51.87
55010;BME280;40903;51.638;7.528;2022-10-28T12:19:30;101157.00;;;24.74;51.61
55010;BME280;40903;51.638;7.528;2022-10-28T12:24:21;101152.00;;;24.83;50.80
55010;BME280;40903;51.638;7.528;2022-10-28T12:26:52;101156.81;;;24.86;50.61
55010;BME280;40903;51.638;7.528;2022-10-28T12:29:29;101152.19;;;24.97;51.52
55010;BME280;40903;51.638;7.528;2022-10-28T12:34:24;101141.25;;;25.11;51.38
55010;BME280;40903;51.638;7.528;2022-10-28T12:37:08;101145.75;;;25.19;50.98
55010;BME280;40903;51.638;7.528;2022-10-28T12:39:40;101144.72;;;25.30;49.64
55010;BME280;40903;51.638;7.528;2022-10-28T12:44:33;101135.09;;;25.57;47.51
55010;BME280;40903;51.638;7.528;2022-10-28T12:52:16;101114.63;;;25.79;48.87
55010;BME280;40903;51.638;7.528;2022-10-28T12:54:49;101124.69;;;25.87;47.72
55010;BME280;40903;51.638;7.528;2022-10-28T12:57:16;101119.09;;;25.87;47.01
55010;BME280;40903;51.638;7.528;2022-10-28T12:59:46;101119.09;;;25.87;46.63
55010;BME280;40903;51.638;7.528;2022-10-28T13:02:13;101115.94;;;25.89;47.16
55010;BME280;40903;51.638;7.528;2022-10-28T13:04:39;101114.81;;;25.93;45.93
55010;BME280;40903;51.638;7.528;2022-10-28T13:09:53;101111.56;;;25.91;46.72
55010;BME280;40903;51.638;7.528;2022-10-28T13:12:31;101104.38;;;25.90;47.68
55010;BME280;40903;51.638;7.528;2022-10-28T13:15:09;101114.34;;;25.91;46.84
55010;BME280;40903;51.638;7.528;2022-10-28T13:20:06;101114.34;;;25.88;47.05
55010;BME280;40903;51.638;7.528;2022-10-28T13:22:42;101117.16;;;25.91;46.53
55010;BME280;40903;51.638;7.528;2022-10-28T13:25:16;101111.53;;;25.88;47.46
55010;BME280;40903;51.638;7.528;2022-10-28T13:27:45;101114.25;;;25.84;46.32
55010;BME280;40903;51.638;7.528;2022-10-28T13:30:16;101112.66;;;25.83;44.99
55010;BME280;40903;51.638;7.528;2022-10-28T13:32:42;101114.19;;;25.77;45.92
55010;BME280;40903;51.638;7.528;2022-10-28T13:37:35;101111.19;;;25.60;46.54
55010;BME280;40903;51.638;7.528;2022-10-28T13:40:03;101107.88;;;25.51;46.24
55010;BME280;40903;51.638;7.528;2022-10-28T13:42:30;101112.16;;;25.41;48.03
55010;BME280;40903;51.638;7.528;2022-10-28T13:47:22;101115.06;;;25.19;48.07
55010;BME280;40903;51.638;7.528;2022-10-28T13:52:32;101125.50;;;25.25;47.23
55010;BME280;40903;51.638;7.528;2022-10-28T13:54:58;101131.09;;;25.25;48.29
55010;BME280;40903;51.638;7.528;2022-10-28T13:57:36;101121.88;;;25.21;49.43
55010;BME280;40903;51.638;7.528;2022-10-28T14:00:05;101131.69;;;25.12;49.43
55010;BME280;40903;51.638;7.528;2022-10-28T14:02:38;101128.00;;;25.04;49.66
55010;BME280;40903;51.638;7.528;2022-10-28T14:05:07;101137.06;;;24.98;49.81
55010;BME280;40903;51.638;7.528;2022-10-28T14:07:34;101132.97;;;24.92;50.64
55010;BME280;40903;51.638;7.528;2022-10-28T14:12:43;101135.31;;;24.86;50.58
55010;BME280;40903;51.638;7.528;2022-10-28T14:17:40;101131.22;;;24.80;50.58
55010;BME280;40903;51.638;7.528;2022-10-28T14:20:07;101124.44;;;24.81;50.43
55010;BME280;40903;51.638;7.528;2022-10-28T14:22:43;101131.22;;;24.80;49.62
55010;BME280;40903;51.638;7.528;2022-10-28T14:27:52;101136.47;;;24.85;48.52
55010;BME280;40903;51.638;7.528;2022-10-28T14:30:19;101127.16;;;24.74;50.73
55010;BME280;40903;51.638;7.528;2022-10-28T14:40:20;101151.63;;;24.39;50.70
55010;BME280;40903;51.638;7.528;2022-10-28T14:45:32;101148.53;;;24.22;51.11
55010;BME280;40903;51.638;7.528;2022-10-28T14:50:36;101145.09;;;24.10;52.53
55010;BME280;40903;51.638;7.528;2022-10-28T14:53:03;101155.97;;;24.15;51.64
55010;BME280;40903;51.638;7.528;2022-10-28T14:55:30;101167.28;;;24.03;52.13
55010;BME280;40903;51.638;7.528;2022-10-28T15:00:42;101165.50;;;23.76;53.95
55010;BME280;40903;51.638;7.528;2022-10-28T15:03:09;101162.53;;;23.65;53.75
55010;BME280;40903;51.638;7.528;2022-10-28T15:05:35;101161.56;;;23.58;54.37
55010;BME280;40903;51.638;7.528;2022-10-28T15:08:01;101162.22;;;23.51;54.72
55010;BME280;40903;51.638;7.528;2022-10-28T15:10:27;101163.53;;;23.38;55.24